Time;durP1;ratioP1;P1;durP2;ratioP2;P2;SDS_P1;SDS_P2;PMS_P1;PMS_P2;Temp;Humidity;BMP_temperature;BMP_pressure;BME280_temperature;BME280_humidity;BME280_pressure;Samples;Min_cycle;Max_cycle;Signal;HPM_P1;HPM_P2
2022/08/16 00:01:17;;;;;;;;;;;;;;;16.91;67.53;95864.81;5047247;28;19979;-72
2022/08/16 00:03:44;;;;;;;;;;;;;;;16.90;67.88;95865.84;5047259;28;19966;-73
2022/08/16 00:06:10;;;;;;;;;;;;;;;16.88;67.98;95866.13;5043463;28;19957;-72
2022/08/16 00:08:36;;;;;;;;;;;;;;;16.86;67.82;95862.94;5047519;28;20431;-72
2022/08/16 00:11:07;;;;;;;;;;;;;;;16.83;68.34;95866.16;5049071;28;20330;-72
2022/08/16 00:13:33;;;;;;;;;;;;;;;16.81;68.42;95866.41;5047003;28;19957;-72
2022/08/16 00:15:59;;;;;;;;;;;;;;;16.80;69.10;95864.84;5048822;28;19965;-72
2022/08/16 00:18:25;;;;;;;;;;;;;;;16.79;68.55;95857.13;5043096;28;19964;-72
2022/08/16 00:20:51;;;;;;;;;;;;;;;16.79;68.81;95862.44;5043634;28;19970;-72
2022/08/16 00:23:17;;;;;;;;;;;;;;;16.81;68.82;95877.00;5048131;28;19976;-72
2022/08/16 00:25:42;;;;;;;;;;;;;;;16.82;68.82;95868.03;5045954;28;20071;-72
2022/08/16 00:28:09;;;;;;;;;;;;;;;16.85;68.91;95864.03;5040275;28;19955;-72
2022/08/16 00:30:34;;;;;;;;;;;;;;;16.86;68.95;95870.91;5046734;28;19972;-72
2022/08/16 00:33:01;;;;;;;;;;;;;;;16.88;69.87;95879.38;5044778;28;19952;-72
2022/08/16 00:35:29;;;;;;;;;;;;;;;16.84;69.47;95879.13;5043163;28;19964;-72
2022/08/16 00:37:55;;;;;;;;;;;;;;;16.83;69.88;95874.09;5052050;28;19975;-72
2022/08/16 00:40:23;;;;;;;;;;;;;;;16.85;69.60;95877.28;5048394;28;19968;-72
2022/08/16 00:42:49;;;;;;;;;;;;;;;16.86;69.97;95870.91;5039781;28;19963;-72
2022/08/16 00:45:31;;;;;;;;;;;;;;;16.86;70.17;95875.41;5051477;28;20038;-72
2022/08/16 00:47:56;;;;;;;;;;;;;;;16.88;69.66;95873.28;5045696;28;20344;-73
2022/08/16 00:50:24;;;;;;;;;;;;;;;16.90;69.70;95876.44;5042701;28;19956;-72
2022/08/16 00:52:49;;;;;;;;;;;;;;;16.92;69.93;95880.41;5045455;28;20332;-72
2022/08/16 00:55:15;;;;;;;;;;;;;;;16.93;69.69;95873.28;5049186;28;19956;-72
2022/08/16 00:57:42;;;;;;;;;;;;;;;16.97;69.95;95871.66;5046352;28;20377;-72
2022/08/16 01:00:08;;;;;;;;;;;;;;;16.98;70.05;95871.38;5044579;28;20324;-72
2022/08/16 01:02:34;;;;;;;;;;;;;;;16.98;70.01;95871.38;5043300;28;20411;-72
2022/08/16 01:05:00;;;;;;;;;;;;;;;16.98;70.00;95874.03;5045375;28;20006;-72
2022/08/16 01:07:27;;;;;;;;;;;;;;;16.98;69.60;95870.59;5048437;28;19961;-72
2022/08/16 01:09:53;;;;;;;;;;;;;;;16.97;69.70;95879.63;5040667;28;19965;-72
2022/08/16 01:12:20;;;;;;;;;;;;;;;16.98;70.32;95883.84;5045774;28;19966;-72
2022/08/16 01:14:49;;;;;;;;;;;;;;;16.97;69.56;95877.75;5049131;28;19967;-72
2022/08/16 01:17:18;;;;;;;;;;;;;;;16.95;70.16;95877.22;5045940;28;19959;-72
2022/08/16 01:19:46;;;;;;;;;;;;;;;16.95;70.06;95876.44;5040483;28;19964;-72
2022/08/16 01:22:23;;;;;;;;;;;;;;;16.93;70.17;95871.41;5047302;28;19966;-72
2022/08/16 01:24:50;;;;;;;;;;;;;;;16.92;70.52;95872.47;5044561;28;19964;-72
2022/08/16 01:27:24;;;;;;;;;;;;;;;16.91;70.78;95878.06;5041927;28;19967;-72
2022/08/16 01:29:55;;;;;;;;;;;;;;;16.93;70.46;95882.00;5043318;28;20456;-72
2022/08/16 01:32:21;;;;;;;;;;;;;;;16.94;70.22;95877.50;5043364;28;19956;-72
2022/08/16 01:34:47;;;;;;;;;;;;;;;16.95;70.90;95879.88;5047972;28;19959;-72
2022/08/16 01:37:13;;;;;;;;;;;;;;;16.96;70.71;95873.50;5045610;28;19968;-72
2022/08/16 01:39:40;;;;;;;;;;;;;;;16.99;70.42;95869.53;5045927;28;19958;-72
2022/08/16 01:42:07;;;;;;;;;;;;;;;17.01;71.99;95872.72;5044540;28;20042;-72
2022/08/16 01:44:34;;;;;;;;;;;;;;;16.99;71.63;95875.63;5049252;28;20407;-72
2022/08/16 01:47:00;;;;;;;;;;;;;;;16.95;71.98;95861.34;5042117;28;19960;-72
2022/08/16 01:49:34;;;;;;;;;;;;;;;16.92;73.60;95869.03;5040778;28;19971;-72
2022/08/16 01:52:09;;;;;;;;;;;;;;;16.89;72.80;95869.59;5031562;28;20421;-72
2022/08/16 01:54:35;;;;;;;;;;;;;;;16.88;72.62;95868.78;5042647;28;19954;-72
2022/08/16 01:57:01;;;;;;;;;;;;;;;16.89;73.49;95872.22;5041640;28;19950;-72
2022/08/16 01:59:28;;;;;;;;;;;;;;;16.90;73.61;95871.16;5047265;28;19980;-72
2022/08/16 02:01:54;;;;;;;;;;;;;;;16.90;73.33;95864.00;5046240;28;19964;-72
2022/08/16 02:04:22;;;;;;;;;;;;;;;16.89;73.86;95865.06;5041837;28;20421;-72
2022/08/16 02:06:48;;;;;;;;;;;;;;;16.92;73.84;95861.09;5043988;28;19957;-73
2022/08/16 02:09:15;;;;;;;;;;;;;;;16.93;73.34;95873.28;5046817;28;19964;-72
2022/08/16 02:11:42;;;;;;;;;;;;;;;16.92;73.47;95867.16;5045560;28;19951;-72
2022/08/16 02:14:08;;;;;;;;;;;;;;;16.93;73.14;95870.63;5048120;28;20334;-72
2022/08/16 02:16:34;;;;;;;;;;;;;;;16.92;74.76;95871.69;5038179;28;20334;-72
2022/08/16 02:19:00;;;;;;;;;;;;;;;16.91;73.82;95867.47;5046302;28;19958;-72
2022/08/16 02:21:27;;;;;;;;;;;;;;;16.88;73.78;95858.19;5050409;28;19972;-72
2022/08/16 02:23:53;;;;;;;;;;;;;;;16.86;73.59;95856.88;5042259;28;19965;-72
2022/08/16 02:26:19;;;;;;;;;;;;;;;16.89;72.98;95861.63;5043424;28;19956;-72
2022/08/16 02:28:45;;;;;;;;;;;;;;;16.90;73.07;95856.06;5040591;28;20346;-72
2022/08/16 02:31:11;;;;;;;;;;;;;;;16.90;72.77;95852.63;5046337;28;19966;-72
2022/08/16 02:33:38;;;;;;;;;;;;;;;16.89;74.00;95861.63;5045803;28;19962;-72
2022/08/16 02:36:04;;;;;;;;;;;;;;;16.89;73.16;95856.34;5046470;28;19955;-72
2022/08/16 02:38:31;;;;;;;;;;;;;;;16.87;74.01;95856.59;5043365;28;19984;-72
2022/08/16 02:40:59;;;;;;;;;;;;;;;16.84;73.29;95854.50;5040623;28;19966;-72
2022/08/16 02:43:27;;;;;;;;;;;;;;;16.85;73.48;95845.50;5035182;28;19980;-72
2022/08/16 02:45:54;;;;;;;;;;;;;;;16.82;73.61;95844.19;5041573;28;19955;-72
2022/08/16 02:48:20;;;;;;;;;;;;;;;16.80;74.04;95848.16;5047846;28;19955;-72
2022/08/16 02:50:46;;;;;;;;;;;;;;;16.80;73.87;95845.50;5043582;28;20446;-72
2022/08/16 02:53:12;;;;;;;;;;;;;;;16.76;73.32;95839.94;5040568;28;19955;-73
2022/08/16 02:55:38;;;;;;;;;;;;;;;16.76;73.44;95842.59;5050112;28;19981;-72
2022/08/16 02:58:04;;;;;;;;;;;;;;;16.75;73.36;95833.06;5045474;28;20414;-72
2022/08/16 03:00:30;;;;;;;;;;;;;;;16.76;73.35;95833.88;5042020;28;19967;-72
2022/08/16 03:02:56;;;;;;;;;;;;;;;16.75;73.21;95832.28;5041190;28;19978;-72
2022/08/16 03:05:22;;;;;;;;;;;;;;;16.74;73.60;95842.06;5044513;28;19956;-72
2022/08/16 03:07:48;;;;;;;;;;;;;;;16.74;73.61;95834.13;5049427;28;19983;-72
2022/08/16 03:10:15;;;;;;;;;;;;;;;16.73;73.91;95827.22;5041224;28;20419;-72
2022/08/16 03:12:42;;;;;;;;;;;;;;;16.72;74.22;95822.22;5042710;28;19970;-72
2022/08/16 03:15:10;;;;;;;;;;;;;;;16.72;74.44;95822.22;5042983;28;19965;-72
2022/08/16 03:17:36;;;;;;;;;;;;;;;16.70;74.09;95821.72;5041114;28;19957;-73
2022/08/16 03:20:06;;;;;;;;;;;;;;;16.69;74.55;95820.13;5044633;28;19968;-72
2022/08/16 03:22:32;;;;;;;;;;;;;;;16.69;74.88;95817.47;5049654;28;19973;-72
2022/08/16 03:24:59;;;;;;;;;;;;;;;16.70;74.71;95816.41;5041410;28;19952;-72
2022/08/16 03:27:26;;;;;;;;;;;;;;;16.70;74.31;95811.91;5041619;28;19965;-72
2022/08/16 03:29:51;;;;;;;;;;;;;;;16.73;75.12;95824.59;5040294;28;19982;-72
2022/08/16 03:32:17;;;;;;;;;;;;;;;16.72;75.23;95815.06;5045186;28;20064;-72
2022/08/16 03:34:45;;;;;;;;;;;;;;;16.73;74.94;95818.50;5043563;28;19964;-72
2022/08/16 03:37:11;;;;;;;;;;;;;;;16.74;74.89;95812.94;5039280;28;19959;-72
2022/08/16 03:39:38;;;;;;;;;;;;;;;16.76;74.94;95817.97;5041415;28;19965;-72
2022/08/16 03:42:04;;;;;;;;;;;;;;;16.77;76.67;95824.84;5047717;28;19972;-72
2022/08/16 03:44:31;;;;;;;;;;;;;;;16.75;75.66;95822.47;5042077;28;20401;-73
2022/08/16 03:46:57;;;;;;;;;;;;;;;16.76;75.51;95821.41;5045989;28;19956;-72
2022/08/16 03:49:23;;;;;;;;;;;;;;;16.76;76.28;95824.06;5046429;28;19964;-72
2022/08/16 03:51:49;;;;;;;;;;;;;;;16.76;75.75;95823.28;5041529;28;19958;-72
2022/08/16 03:54:15;;;;;;;;;;;;;;;16.76;76.60;95820.63;5041992;28;19967;-72
2022/08/16 03:56:41;;;;;;;;;;;;;;;16.74;77.30;95825.41;5048296;28;20473;-72
2022/08/16 03:59:07;;;;;;;;;;;;;;;16.74;76.39;95828.06;5044354;28;20324;-72
2022/08/16 04:01:33;;;;;;;;;;;;;;;16.73;77.12;95827.22;5044011;28;19975;-72
2022/08/16 04:03:59;;;;;;;;;;;;;;;16.73;76.60;95832.53;5043839;28;19964;-72
2022/08/16 04:06:25;;;;;;;;;;;;;;;16.74;76.56;95834.13;5037317;28;19966;-73
2022/08/16 04:08:51;;;;;;;;;;;;;;;16.75;75.99;95825.09;5046771;28;19955;-72
2022/08/16 04:11:17;;;;;;;;;;;;;;;16.76;76.54;95831.22;5044773;28;19972;-72
2022/08/16 04:13:44;;;;;;;;;;;;;;;16.77;75.93;95822.97;5044180;28;19973;-73
2022/08/16 04:16:11;;;;;;;;;;;;;;;16.78;75.98;95826.44;5042258;28;19962;-72
2022/08/16 04:18:37;;;;;;;;;;;;;;;16.80;76.05;95827.78;5045787;28;19955;-72
2022/08/16 04:21:04;;;;;;;;;;;;;;;16.80;75.77;95825.13;5047626;28;19963;-72
2022/08/16 04:23:30;;;;;;;;;;;;;;;16.81;76.44;95824.06;5045879;28;19961;-72
2022/08/16 04:25:56;;;;;;;;;;;;;;;16.81;76.46;95826.69;5042179;28;19979;-72
2022/08/16 04:28:22;;;;;;;;;;;;;;;16.83;76.45;95824.56;5048156;28;19994;-73
2022/08/16 04:30:48;;;;;;;;;;;;;;;16.84;76.50;95839.41;5047203;28;19965;-72
2022/08/16 04:33:14;;;;;;;;;;;;;;;16.87;76.51;95839.94;5046402;28;20053;-72
2022/08/16 04:35:40;;;;;;;;;;;;;;;16.88;75.61;95839.63;5046507;28;20483;-72
2022/08/16 04:38:06;;;;;;;;;;;;;;;16.92;75.89;95848.63;5045406;28;20058;-72
2022/08/16 04:40:32;;;;;;;;;;;;;;;16.95;76.11;95845.44;5043524;28;20045;-73
2022/08/16 04:43:00;;;;;;;;;;;;;;;16.97;76.43;95850.47;5047505;28;20022;-72
2022/08/16 04:45:26;;;;;;;;;;;;;;;16.99;75.63;95849.13;5064265;28;19955;-72
2022/08/16 04:47:52;;;;;;;;;;;;;;;17.02;75.74;95855.75;5044488;28;19955;-72
2022/08/16 04:50:23;;;;;;;;;;;;;;;17.05;75.83;95847.25;5041398;28;19963;-72
2022/08/16 04:52:50;;;;;;;;;;;;;;;17.07;77.58;95852.25;5044923;28;19953;-72
2022/08/16 04:55:18;;;;;;;;;;;;;;;17.06;76.70;95851.47;5045181;28;19953;-72
2022/08/16 04:57:46;;;;;;;;;;;;;;;17.06;76.78;95848.03;5048139;28;19960;-72
2022/08/16 05:00:14;;;;;;;;;;;;;;;17.07;76.62;95853.06;5044592;28;19959;-72
2022/08/16 05:02:41;;;;;;;;;;;;;;;17.10;76.77;95864.97;5044518;28;20330;-72
2022/08/16 05:05:07;;;;;;;;;;;;;;;17.13;76.56;95861.78;5046432;28;20413;-72
2022/08/16 05:07:33;;;;;;;;;;;;;;;17.16;76.65;95861.25;5041983;28;19959;-72
2022/08/16 05:09:59;;;;;;;;;;;;;;;17.19;76.71;95864.13;5045787;28;20481;-72
2022/08/16 05:12:25;;;;;;;;;;;;;;;17.23;76.42;95867.78;5045338;28;19966;-72
2022/08/16 05:14:51;;;;;;;;;;;;;;;17.27;76.98;95869.91;5048263;28;20328;-72
2022/08/16 05:17:17;;;;;;;;;;;;;;;17.29;76.57;95875.72;5043637;28;19959;-72
2022/08/16 05:19:43;;;;;;;;;;;;;;;17.30;76.90;95878.09;5042011;28;20052;-72
2022/08/16 05:22:09;;;;;;;;;;;;;;;17.33;76.33;95882.06;5052350;28;20005;-73
2022/08/16 05:24:34;;;;;;;;;;;;;;;17.35;77.10;95874.63;5045929;28;19964;-72
2022/08/16 05:27:00;;;;;;;;;;;;;;;17.36;76.50;95871.69;5042439;28;20061;-73
2022/08/16 05:29:26;;;;;;;;;;;;;;;17.39;76.89;95867.72;5047864;28;20506;-73
2022/08/16 05:31:52;;;;;;;;;;;;;;;17.39;77.35;95876.47;5044844;28;20027;-72
2022/08/16 05:34:20;;;;;;;;;;;;;;;17.41;76.49;95871.69;5042546;28;20011;-72
2022/08/16 05:36:48;;;;;;;;;;;;;;;17.45;76.50;95870.06;5044837;28;19969;-72
2022/08/16 05:39:14;;;;;;;;;;;;;;;17.50;76.37;95866.56;5046079;28;19956;-72
2022/08/16 05:41:40;;;;;;;;;;;;;;;17.58;76.02;95866.00;5047446;28;19976;-73
2022/08/16 05:44:06;;;;;;;;;;;;;;;17.84;75.75;95876.44;5049360;28;19955;-73
2022/08/16 05:46:32;;;;;;;;;;;;;;;18.35;74.41;95877.81;5045991;28;19968;-73
2022/08/16 05:48:58;;;;;;;;;;;;;;;18.74;73.10;95869.69;5044110;28;19972;-73
2022/08/16 05:51:24;;;;;;;;;;;;;;;19.24;71.33;95870.16;5044101;28;19960;-73
2022/08/16 05:53:50;;;;;;;;;;;;;;;19.80;70.39;95871.22;5043015;28;20012;-73
2022/08/16 05:56:16;;;;;;;;;;;;;;;20.32;68.06;95862.34;5042665;28;20412;-73
2022/08/16 05:58:42;;;;;;;;;;;;;;;20.79;66.67;95861.22;5045700;28;20354;-73
2022/08/16 06:01:08;;;;;;;;;;;;;;;21.18;63.68;95833.19;5047331;28;20013;-73
2022/08/16 06:03:34;;;;;;;;;;;;;;;21.49;63.36;95845.88;5039657;28;20354;-73
2022/08/16 06:06:00;;;;;;;;;;;;;;;21.75;62.66;95843.38;5043198;28;19956;-73
2022/08/16 06:08:26;;;;;;;;;;;;;;;22.00;61.85;95833.16;5043070;28;19957;-73
2022/08/16 06:10:52;;;;;;;;;;;;;;;22.30;60.97;95826.28;5041847;28;20473;-73
2022/08/16 06:13:18;;;;;;;;;;;;;;;22.60;60.20;95823.88;5043439;28;20529;-73
2022/08/16 06:15:44;;;;;;;;;;;;;;;22.85;58.72;95820.47;5049893;28;20298;-73
2022/08/16 06:18:09;;;;;;;;;;;;;;;23.09;58.59;95811.25;5045332;28;19960;-73
2022/08/16 06:20:35;;;;;;;;;;;;;;;23.29;58.74;95812.53;5043157;28;19997;-73
2022/08/16 06:23:01;;;;;;;;;;;;;;;23.13;56.85;95798.03;5042970;28;19978;-73
2022/08/16 06:25:27;;;;;;;;;;;;;;;23.12;57.06;95797.25;5047784;28;19959;-73
2022/08/16 06:27:54;;;;;;;;;;;;;;;23.22;57.34;95807.63;5043340;28;19971;-73
2022/08/16 06:30:20;;;;;;;;;;;;;;;23.33;56.16;95796.59;5039872;28;19984;-74
2022/08/16 06:32:46;;;;;;;;;;;;;;;23.09;55.26;95795.19;5046234;28;19997;-73
2022/08/16 06:35:14;;;;;;;;;;;;;;;22.83;56.98;95814.66;5050543;28;20397;-73
2022/08/16 06:37:40;;;;;;;;;;;;;;;22.76;56.92;95810.84;5045213;28;19970;-73
2022/08/16 06:40:06;;;;;;;;;;;;;;;22.66;56.86;95809.28;5043191;28;19969;-73
2022/08/16 06:42:32;;;;;;;;;;;;;;;22.50;57.10;95816.91;5049981;28;20438;-73
2022/08/16 06:44:58;;;;;;;;;;;;;;;22.52;58.16;95828.09;5041555;28;20019;-73
2022/08/16 06:47:24;;;;;;;;;;;;;;;22.54;57.77;95825.13;5041983;28;20339;-73
2022/08/16 06:49:50;;;;;;;;;;;;;;;22.76;57.67;95825.00;5043396;28;19961;-73
2022/08/16 06:52:16;;;;;;;;;;;;;;;22.80;57.02;95825.94;5043962;28;20010;-73
2022/08/16 06:54:42;;;;;;;;;;;;;;;22.74;57.10;95821.88;5047530;28;19962;-73
2022/08/16 06:57:09;;;;;;;;;;;;;;;22.73;57.38;95827.53;5036895;28;19974;-73
2022/08/16 06:59:36;;;;;;;;;;;;;;;22.75;56.98;95823.44;5041887;28;19972;-73
2022/08/16 07:02:03;;;;;;;;;;;;;;;22.78;57.74;95824.69;5043124;28;20004;-73
2022/08/16 07:04:29;;;;;;;;;;;;;;;23.01;57.45;95825.41;5044068;28;19966;-73
2022/08/16 07:06:55;;;;;;;;;;;;;;;23.08;55.69;95797.09;5038903;28;19959;-73
2022/08/16 07:09:21;;;;;;;;;;;;;;;23.16;56.13;95811.59;5044659;28;19965;-73
2022/08/16 07:11:47;;;;;;;;;;;;;;;23.17;57.04;95831.88;5043565;28;19963;-73
2022/08/16 07:14:13;;;;;;;;;;;;;;;23.19;55.49;95807.50;5042868;28;19965;-74
2022/08/16 07:16:40;;;;;;;;;;;;;;;23.23;56.53;95816.47;5043211;28;20057;-73
2022/08/16 07:19:09;;;;;;;;;;;;;;;23.32;54.49;95789.69;5042812;28;19968;-73
2022/08/16 07:21:35;;;;;;;;;;;;;;;23.34;55.75;95800.88;5044362;28;19970;-74
2022/08/16 07:24:02;;;;;;;;;;;;;;;23.53;55.70;95808.56;5045111;28;20425;-73
2022/08/16 07:26:28;;;;;;;;;;;;;;;23.60;55.22;95798.97;5043611;28;19970;-73
2022/08/16 07:28:54;;;;;;;;;;;;;;;23.53;54.70;95793.28;5044193;28;20506;-73
2022/08/16 07:31:20;;;;;;;;;;;;;;;23.67;55.48;95807.28;5045233;28;19981;-73
2022/08/16 07:33:46;;;;;;;;;;;;;;;23.89;56.28;95818.94;5038576;28;19978;-73
2022/08/16 07:36:13;;;;;;;;;;;;;;;24.08;54.55;95807.84;5042554;28;19970;-73
2022/08/16 07:38:39;;;;;;;;;;;;;;;24.09;52.98;95788.78;5042839;28;19976;-74
2022/08/16 07:41:05;;;;;;;;;;;;;;;24.14;54.42;95803.09;5035639;28;20020;-73
2022/08/16 07:43:31;;;;;;;;;;;;;;;24.05;53.51;95793.22;5040728;28;19978;-73
2022/08/16 07:45:58;;;;;;;;;;;;;;;24.03;53.92;95803.47;5042993;28;19959;-74
2022/08/16 07:48:24;;;;;;;;;;;;;;;24.00;52.54;95798.75;5044585;28;20442;-73
2022/08/16 07:50:50;;;;;;;;;;;;;;;24.01;55.18;95815.59;5042817;28;19960;-73
2022/08/16 07:53:16;;;;;;;;;;;;;;;23.91;52.88;95804.09;5039995;28;19967;-73
2022/08/16 07:55:42;;;;;;;;;;;;;;;23.66;54.63;95823.66;5039417;28;19968;-73
2022/08/16 07:58:08;;;;;;;;;;;;;;;23.62;54.93;95828.88;5042900;28;20303;-73
2022/08/16 08:00:34;;;;;;;;;;;;;;;23.63;54.40;95827.00;5042457;28;20010;-74
2022/08/16 08:03:00;;;;;;;;;;;;;;;23.86;55.04;95827.63;5047144;28;19984;-73
2022/08/16 08:05:27;;;;;;;;;;;;;;;24.02;54.27;95826.00;5051519;28;19966;-73
2022/08/16 08:07:53;;;;;;;;;;;;;;;23.93;53.93;95830.56;5044790;28;19958;-73
2022/08/16 08:10:20;;;;;;;;;;;;;;;23.74;51.74;95812.16;5044426;28;20472;-73
2022/08/16 08:12:46;;;;;;;;;;;;;;;23.73;53.13;95823.19;5049470;28;19963;-73
2022/08/16 08:15:12;;;;;;;;;;;;;;;24.03;54.50;95848.22;5047028;28;19959;-73
2022/08/16 08:17:39;;;;;;;;;;;;;;;24.37;52.45;95817.06;5046442;28;20016;-73
2022/08/16 08:20:06;;;;;;;;;;;;;;;24.55;51.66;95823.13;5045952;28;19962;-74
2022/08/16 08:22:32;;;;;;;;;;;;;;;24.49;52.46;95834.03;5045736;28;19982;-73
2022/08/16 08:24:59;;;;;;;;;;;;;;;24.57;51.43;95816.38;5047035;28;19963;-73
2022/08/16 08:27:25;;;;;;;;;;;;;;;24.32;50.32;95818.03;5047294;28;19958;-74
2022/08/16 08:29:51;;;;;;;;;;;;;;;24.07;52.69;95833.06;5042352;28;19995;-74
2022/08/16 08:32:20;;;;;;;;;;;;;;;24.20;52.61;95847.38;5044230;28;20358;-74
2022/08/16 08:34:46;;;;;;;;;;;;;;;24.48;51.84;95835.13;5045650;28;20065;-73
2022/08/16 08:37:12;;;;;;;;;;;;;;;24.90;51.97;95843.31;5050558;28;19972;-73
2022/08/16 08:39:38;;;;;;;;;;;;;;;25.38;49.48;95814.41;5039685;28;20423;-73
2022/08/16 08:42:04;;;;;;;;;;;;;;;25.67;47.56;95807.38;5043030;28;19978;-73
2022/08/16 08:44:30;;;;;;;;;;;;;;;25.33;47.62;95820.00;5046798;28;19985;-73
2022/08/16 08:47:00;;;;;;;;;;;;;;;25.29;47.58;95822.53;5048600;28;20401;-74
2022/08/16 08:49:27;;;;;;;;;;;;;;;25.49;47.29;95830.91;5044645;28;19964;-73
2022/08/16 08:51:53;;;;;;;;;;;;;;;25.72;48.63;95837.50;5043394;28;19955;-73
2022/08/16 08:54:19;;;;;;;;;;;;;;;25.96;45.37;95808.41;5046346;28;20431;-73
2022/08/16 08:56:45;;;;;;;;;;;;;;;26.15;46.82;95822.09;5049430;28;19961;-73
2022/08/16 08:59:12;;;;;;;;;;;;;;;26.21;46.65;95826.13;5046557;28;20436;-75
2022/08/16 09:01:38;;;;;;;;;;;;;;;26.26;44.54;95811.69;5045235;28;20332;-74
2022/08/16 09:04:05;;;;;;;;;;;;;;;26.32;45.02;95832.63;5043741;28;19971;-74
2022/08/16 09:06:31;;;;;;;;;;;;;;;26.45;43.78;95840.72;5055264;28;19956;-73
2022/08/16 09:08:57;;;;;;;;;;;;;;;26.55;44.80;95861.00;5041687;28;19963;-75
2022/08/16 09:11:24;;;;;;;;;;;;;;;26.63;44.36;95860.91;5048856;28;19974;-73
2022/08/16 09:13:50;;;;;;;;;;;;;;;26.68;42.23;95859.91;5045972;28;19975;-73
2022/08/16 09:16:16;;;;;;;;;;;;;;;26.66;43.89;95880.97;5043371;28;19951;-73
2022/08/16 09:18:43;;;;;;;;;;;;;;;26.46;42.55;95877.25;5045143;28;20345;-74
2022/08/16 09:21:09;;;;;;;;;;;;;;;26.34;43.44;95878.00;5043457;28;19962;-73
2022/08/16 09:23:36;;;;;;;;;;;;;;;26.38;44.44;95884.28;5044167;28;19986;-73
2022/08/16 09:26:03;;;;;;;;;;;;;;;26.55;44.07;95875.22;5047920;28;19963;-73
2022/08/16 09:28:29;;;;;;;;;;;;;;;26.72;43.35;95874.25;5043995;28;19983;-73
2022/08/16 09:30:55;;;;;;;;;;;;;;;26.85;42.95;95870.44;5041111;28;20004;-73
2022/08/16 09:33:21;;;;;;;;;;;;;;;26.97;42.70;95866.19;5045888;28;19968;-74
2022/08/16 09:35:48;;;;;;;;;;;;;;;27.12;43.22;95878.94;5049353;28;19967;-73
2022/08/16 09:38:14;;;;;;;;;;;;;;;27.27;42.35;95878.25;5035714;28;20411;-73
2022/08/16 09:40:40;;;;;;;;;;;;;;;27.33;42.13;95876.91;5035856;28;20358;-73
2022/08/16 09:43:08;;;;;;;;;;;;;;;27.18;41.81;95882.97;5046070;28;19974;-73
2022/08/16 09:45:37;;;;;;;;;;;;;;;26.96;42.92;95886.91;5044229;28;19955;-74
2022/08/16 09:48:06;;;;;;;;;;;;;;;26.72;40.46;95874.25;5040933;28;19960;-73
2022/08/16 09:50:33;;;;;;;;;;;;;;;26.76;42.57;95888.59;5051097;28;19965;-73
2022/08/16 09:52:59;;;;;;;;;;;;;;;26.82;41.34;95876.50;5046885;28;19970;-73
2022/08/16 09:55:25;;;;;;;;;;;;;;;26.77;43.01;95873.25;5038083;28;19966;-73
2022/08/16 09:57:51;;;;;;;;;;;;;;;26.71;41.45;95875.38;5044833;28;20339;-74
2022/08/16 10:00:17;;;;;;;;;;;;;;;26.90;42.17;95885.59;5048419;28;20005;-73
2022/08/16 10:02:44;;;;;;;;;;;;;;;27.05;42.11;95876.06;5037432;28;19982;-73
2022/08/16 10:05:10;;;;;;;;;;;;;;;26.90;41.11;95870.22;5030444;28;19960;-73
2022/08/16 10:07:36;;;;;;;;;;;;;;;26.69;42.03;95881.09;5048303;28;20014;-75
2022/08/16 10:10:02;;;;;;;;;;;;;;;26.56;41.62;95878.69;5040704;28;19994;-74
2022/08/16 10:15:14;;;;;;;;;;;;;;;26.59;43.03;95892.28;5030878;28;19955;-74
2022/08/16 10:17:41;;;;;;;;;;;;;;;26.80;41.68;95886.81;5032424;28;19958;-74
2022/08/16 10:20:10;;;;;;;;;;;;;;;27.06;41.88;95874.91;5028496;28;19967;-74
2022/08/16 10:22:37;;;;;;;;;;;;;;;27.36;41.22;95870.06;5033857;28;19969;-74
2022/08/16 10:25:03;;;;;;;;;;;;;;;27.36;41.37;95878.13;5028711;28;19955;-74
2022/08/16 10:27:29;;;;;;;;;;;;;;;27.31;40.41;95875.69;5037555;28;19973;-74
2022/08/16 10:29:55;;;;;;;;;;;;;;;27.21;40.74;95871.50;5029093;28;19993;-75
2022/08/16 10:32:21;;;;;;;;;;;;;;;26.96;40.69;95872.69;5024553;28;19976;-75
2022/08/16 10:34:47;;;;;;;;;;;;;;;27.05;41.55;95876.06;5032689;28;20377;-74
2022/08/16 10:37:13;;;;;;;;;;;;;;;27.23;39.79;95863.91;5030992;28;20011;-74
2022/08/16 10:39:39;;;;;;;;;;;;;;;27.51;40.68;95877.44;5039812;28;20058;-74
2022/08/16 10:42:05;;;;;;;;;;;;;;;27.70;39.16;95868.72;5043307;28;20008;-74
2022/08/16 10:44:31;;;;;;;;;;;;;;;27.72;40.08;95877.25;5044690;28;20002;-74
2022/08/16 10:46:57;;;;;;;;;;;;;;;27.98;40.88;95881.44;5041657;28;20433;-76
2022/08/16 10:49:23;;;;;;;;;;;;;;;28.03;39.05;95866.94;5038173;28;19964;-74
2022/08/16 10:51:49;;;;;;;;;;;;;;;28.12;38.12;95873.72;5046771;28;19968;-74
2022/08/16 10:54:15;;;;;;;;;;;;;;;28.19;37.31;95875.06;5043422;28;19970;-74
2022/08/16 10:56:42;;;;;;;;;;;;;;;28.33;37.14;95878.13;5037497;28;19965;-74
2022/08/16 10:59:09;;;;;;;;;;;;;;;28.25;36.74;95874.44;5042905;28;19968;-73
2022/08/16 11:01:35;;;;;;;;;;;;;;;28.21;39.20;95873.56;5037636;28;19973;-74
2022/08/16 11:04:01;;;;;;;;;;;;;;;28.26;36.48;95861.75;5042847;28;19979;-74
2022/08/16 11:06:27;;;;;;;;;;;;;;;28.27;37.79;95874.09;5039237;28;19965;-74
2022/08/16 11:08:53;;;;;;;;;;;;;;;28.47;37.77;95870.34;5043560;28;19968;-74
2022/08/16 11:11:19;;;;;;;;;;;;;;;28.78;37.14;95881.53;5048781;28;20017;-74
2022/08/16 11:13:47;;;;;;;;;;;;;;;28.94;35.70;95866.88;5039391;28;19965;-74
2022/08/16 11:16:13;;;;;;;;;;;;;;;29.04;36.29;95868.28;5044479;28;19961;-74
2022/08/16 11:18:39;;;;;;;;;;;;;;;29.28;36.55;95867.28;5043060;28;20343;-74
2022/08/16 11:21:06;;;;;;;;;;;;;;;29.49;34.91;95858.84;5049023;28;19994;-75
2022/08/16 11:23:31;;;;;;;;;;;;;;;29.65;35.99;95876.88;5042676;28;19975;-74
2022/08/16 11:25:58;;;;;;;;;;;;;;;29.81;33.17;95855.25;5038166;28;20411;-75
2022/08/16 11:28:24;;;;;;;;;;;;;;;29.88;35.59;95875.09;5047216;28;19991;-74
2022/08/16 11:30:50;;;;;;;;;;;;;;;29.89;35.49;95876.63;5049822;28;19960;-74
2022/08/16 11:33:16;;;;;;;;;;;;;;;29.77;33.95;95865.97;5048014;28;19971;-74
2022/08/16 11:35:42;;;;;;;;;;;;;;;29.32;33.51;95861.97;5046137;28;19995;-74
2022/08/16 11:38:16;;;;;;;;;;;;;;;29.24;34.31;95868.34;5045304;28;19970;-74
2022/08/16 11:40:48;;;;;;;;;;;;;;;29.37;34.85;95863.59;5050067;28;19962;-74
2022/08/16 11:43:16;;;;;;;;;;;;;;;29.65;34.85;95858.78;5053813;28;19985;-75
2022/08/16 11:45:42;;;;;;;;;;;;;;;29.84;32.80;95847.19;5048340;28;19964;-74
2022/08/16 11:48:08;;;;;;;;;;;;;;;29.81;32.26;95850.59;5042495;28;20357;-74
2022/08/16 11:50:34;;;;;;;;;;;;;;;29.81;32.01;95860.66;5049112;28;20013;-74
2022/08/16 11:53:01;;;;;;;;;;;;;;;29.76;33.61;95861.72;5050264;28;19968;-74
2022/08/16 11:55:27;;;;;;;;;;;;;;;29.95;33.86;95859.00;5045590;28;19969;-74
2022/08/16 11:57:53;;;;;;;;;;;;;;;29.94;33.18;95853.94;5045292;28;20323;-74
2022/08/16 12:00:19;;;;;;;;;;;;;;;29.89;32.47;95856.94;5042025;28;20431;-74
2022/08/16 12:02:44;;;;;;;;;;;;;;;29.83;34.03;95861.84;5046874;28;19962;-74
2022/08/16 12:05:13;;;;;;;;;;;;;;;29.88;34.75;95866.97;5048149;28;19978;-75
2022/08/16 12:07:39;;;;;;;;;;;;;;;30.02;33.66;95852.16;5052946;28;19964;-74
2022/08/16 12:10:09;;;;;;;;;;;;;;;29.87;31.08;95843.00;5028855;28;19960;-74
2022/08/16 12:12:35;;;;;;;;;;;;;;;29.49;32.57;95839.94;5046946;28;19962;-74
2022/08/16 12:15:01;;;;;;;;;;;;;;;29.40;33.10;95852.06;5052648;28;20430;-74
2022/08/16 12:17:28;;;;;;;;;;;;;;;29.48;33.99;95846.47;5043283;28;19972;-74
2022/08/16 12:19:54;;;;;;;;;;;;;;;29.75;34.39;95847.41;5047159;28;19951;-74
2022/08/16 12:22:21;;;;;;;;;;;;;;;29.91;32.35;95823.00;5045624;28;19994;-74
2022/08/16 12:24:47;;;;;;;;;;;;;;;29.58;31.59;95823.50;5045768;28;19979;-75
2022/08/16 12:27:13;;;;;;;;;;;;;;;29.66;33.44;95837.94;5048753;28;19964;-75
2022/08/16 12:29:39;;;;;;;;;;;;;;;29.74;33.03;95839.66;5040841;28;20378;-74
2022/08/16 12:32:05;;;;;;;;;;;;;;;29.95;33.30;95839.28;5045500;28;19971;-74
2022/08/16 12:34:31;;;;;;;;;;;;;;;30.15;32.37;95837.31;5050504;28;19974;-74
2022/08/16 12:36:57;;;;;;;;;;;;;;;30.33;31.59;95827.63;5045695;28;19967;-74
2022/08/16 12:39:23;;;;;;;;;;;;;;;30.66;30.79;95826.22;5052922;28;19966;-74
2022/08/16 12:41:51;;;;;;;;;;;;;;;30.78;30.48;95825.22;5047400;28;20391;-74
2022/08/16 12:44:18;;;;;;;;;;;;;;;30.78;30.58;95830.63;5041293;28;19992;-75
2022/08/16 12:48:56;;;;;;;;;;;;;;;30.76;31.24;95832.91;5046597;28;19965;-74